sensor_id;sensor_type;location;lat;lon;timestamp;temperature;humidity
68766;DHT22;55756;45.582;11.484;2024-02-23T00:00:52;14.50;71.00
68766;DHT22;55756;45.582;11.484;2024-02-23T00:03:17;14.50;71.00
68766;DHT22;55756;45.582;11.484;2024-02-23T00:05:43;14.50;70.90
68766;DHT22;55756;45.582;11.484;2024-02-23T00:08:09;14.60;70.60
68766;DHT22;55756;45.582;11.484;2024-02-23T00:10:35;14.60;70.50
68766;DHT22;55756;45.582;11.484;2024-02-23T00:13:00;14.70;70.20
68766;DHT22;55756;45.582;11.484;2024-02-23T00:15:26;14.70;70.30
68766;DHT22;55756;45.582;11.484;2024-02-23T00:17:52;14.60;70.30
68766;DHT22;55756;45.582;11.484;2024-02-23T00:20:17;14.60;70.40
68766;DHT22;55756;45.582;11.484;2024-02-23T00:22:43;14.50;70.20
68766;DHT22;55756;45.582;11.484;2024-02-23T00:25:09;14.50;70.50
68766;DHT22;55756;45.582;11.484;2024-02-23T00:27:35;14.50;70.70
68766;DHT22;55756;45.582;11.484;2024-02-23T00:30:00;14.40;70.80
68766;DHT22;55756;45.582;11.484;2024-02-23T00:32:26;14.40;70.90
68766;DHT22;55756;45.582;11.484;2024-02-23T00:34:52;14.40;71.00
68766;DHT22;55756;45.582;11.484;2024-02-23T00:37:17;14.40;71.00
68766;DHT22;55756;45.582;11.484;2024-02-23T00:39:43;14.40;70.90
68766;DHT22;55756;45.582;11.484;2024-02-23T00:42:09;14.40;70.90
68766;DHT22;55756;45.582;11.484;2024-02-23T00:44:34;14.30;70.80
68766;DHT22;55756;45.582;11.484;2024-02-23T00:47:00;14.30;70.80
68766;DHT22;55756;45.582;11.484;2024-02-23T00:49:30;14.40;70.70
68766;DHT22;55756;45.582;11.484;2024-02-23T00:51:56;14.40;70.60
68766;DHT22;55756;45.582;11.484;2024-02-23T00:54:22;14.40;70.50
68766;DHT22;55756;45.582;11.484;2024-02-23T00:56:47;14.30;70.80
68766;DHT22;55756;45.582;11.484;2024-02-23T00:59:13;14.30;70.80
68766;DHT22;55756;45.582;11.484;2024-02-23T01:01:39;14.30;70.90
68766;DHT22;55756;45.582;11.484;2024-02-23T01:04:05;14.30;71.10
68766;DHT22;55756;45.582;11.484;2024-02-23T01:06:30;14.30;71.10
68766;DHT22;55756;45.582;11.484;2024-02-23T01:08:56;14.30;71.00
68766;DHT22;55756;45.582;11.484;2024-02-23T01:11:22;14.30;71.10
68766;DHT22;55756;45.582;11.484;2024-02-23T01:13:47;14.30;71.10
68766;DHT22;55756;45.582;11.484;2024-02-23T01:16:13;14.40;71.00
68766;DHT22;55756;45.582;11.484;2024-02-23T01:18:39;14.40;70.80
68766;DHT22;55756;45.582;11.484;2024-02-23T01:21:04;14.50;70.80
68766;DHT22;55756;45.582;11.484;2024-02-23T01:23:31;14.50;70.60
68766;DHT22;55756;45.582;11.484;2024-02-23T01:25:57;14.50;70.50
68766;DHT22;55756;45.582;11.484;2024-02-23T01:28:24;14.50;70.60
68766;DHT22;55756;45.582;11.484;2024-02-23T01:30:50;14.60;70.30
68766;DHT22;55756;45.582;11.484;2024-02-23T01:33:16;14.60;70.30
68766;DHT22;55756;45.582;11.484;2024-02-23T01:35:42;14.60;70.20
68766;DHT22;55756;45.582;11.484;2024-02-23T01:38:07;14.50;70.10
68766;DHT22;55756;45.582;11.484;2024-02-23T01:40:33;14.40;70.20
68766;DHT22;55756;45.582;11.484;2024-02-23T01:43:03;14.40;70.30
68766;DHT22;55756;45.582;11.484;2024-02-23T01:45:29;14.40;70.20
68766;DHT22;55756;45.582;11.484;2024-02-23T01:47:57;14.40;70.30
68766;DHT22;55756;45.582;11.484;2024-02-23T01:50:23;14.30;70.50
68766;DHT22;55756;45.582;11.484;2024-02-23T01:52:49;14.30;70.50
68766;DHT22;55756;45.582;11.484;2024-02-23T01:55:19;14.30;70.30
68766;DHT22;55756;45.582;11.484;2024-02-23T01:57:46;14.30;70.40
68766;DHT22;55756;45.582;11.484;2024-02-23T02:00:16;14.30;70.40
68766;DHT22;55756;45.582;11.484;2024-02-23T02:02:48;14.30;70.40
68766;DHT22;55756;45.582;11.484;2024-02-23T02:05:15;14.30;70.50
68766;DHT22;55756;45.582;11.484;2024-02-23T02:07:41;14.40;70.40
68766;DHT22;55756;45.582;11.484;2024-02-23T02:10:08;14.40;70.20
68766;DHT22;55756;45.582;11.484;2024-02-23T02:12:34;14.40;70.20
68766;DHT22;55756;45.582;11.484;2024-02-23T02:15:01;14.30;70.30
68766;DHT22;55756;45.582;11.484;2024-02-23T02:17:27;14.30;70.70
68766;DHT22;55756;45.582;11.484;2024-02-23T02:19:53;14.20;70.60
68766;DHT22;55756;45.582;11.484;2024-02-23T02:22:19;14.20;70.50
68766;DHT22;55756;45.582;11.484;2024-02-23T02:24:45;14.30;70.60
68766;DHT22;55756;45.582;11.484;2024-02-23T02:27:14;14.20;70.60
68766;DHT22;55756;45.582;11.484;2024-02-23T02:29:39;14.30;70.50
68766;DHT22;55756;45.582;11.484;2024-02-23T02:32:05;14.30;70.30
68766;DHT22;55756;45.582;11.484;2024-02-23T02:34:31;14.30;70.40
68766;DHT22;55756;45.582;11.484;2024-02-23T02:36:57;14.30;70.30
68766;DHT22;55756;45.582;11.484;2024-02-23T02:39:22;14.30;70.20
68766;DHT22;55756;45.582;11.484;2024-02-23T02:41:48;14.30;70.30
68766;DHT22;55756;45.582;11.484;2024-02-23T02:44:14;14.20;70.10
68766;DHT22;55756;45.582;11.484;2024-02-23T02:46:41;14.20;70.20
68766;DHT22;55756;45.582;11.484;2024-02-23T02:49:06;14.20;70.00
68766;DHT22;55756;45.582;11.484;2024-02-23T02:51:32;14.20;70.00
68766;DHT22;55756;45.582;11.484;2024-02-23T02:53:58;14.20;69.90
68766;DHT22;55756;45.582;11.484;2024-02-23T02:56:24;14.30;70.10
68766;DHT22;55756;45.582;11.484;2024-02-23T02:58:50;14.30;70.20
68766;DHT22;55756;45.582;11.484;2024-02-23T03:01:15;14.40;70.00
68766;DHT22;55756;45.582;11.484;2024-02-23T03:03:41;14.40;69.90
68766;DHT22;55756;45.582;11.484;2024-02-23T03:06:07;14.40;69.70
68766;DHT22;55756;45.582;11.484;2024-02-23T03:08:33;14.40;69.80
68766;DHT22;55756;45.582;11.484;2024-02-23T03:10:59;14.40;69.60
68766;DHT22;55756;45.582;11.484;2024-02-23T03:13:25;14.40;69.30
68766;DHT22;55756;45.582;11.484;2024-02-23T03:15:50;14.40;69.10
68766;DHT22;55756;45.582;11.484;2024-02-23T03:18:16;14.40;68.90
68766;DHT22;55756;45.582;11.484;2024-02-23T03:20:42;14.40;69.00
68766;DHT22;55756;45.582;11.484;2024-02-23T03:23:08;14.30;69.20
68766;DHT22;55756;45.582;11.484;2024-02-23T03:25:33;14.40;69.20
68766;DHT22;55756;45.582;11.484;2024-02-23T03:27:59;14.40;68.80
68766;DHT22;55756;45.582;11.484;2024-02-23T03:30:26;14.40;68.60
68766;DHT22;55756;45.582;11.484;2024-02-23T03:32:51;14.40;68.50
68766;DHT22;55756;45.582;11.484;2024-02-23T03:35:17;14.40;68.30
68766;DHT22;55756;45.582;11.484;2024-02-23T03:37:43;14.30;68.20
68766;DHT22;55756;45.582;11.484;2024-02-23T03:40:09;14.30;68.10
68766;DHT22;55756;45.582;11.484;2024-02-23T03:42:36;14.20;68.30
68766;DHT22;55756;45.582;11.484;2024-02-23T03:45:02;14.10;68.50
68766;DHT22;55756;45.582;11.484;2024-02-23T03:47:28;14.10;68.50
68766;DHT22;55756;45.582;11.484;2024-02-23T03:49:54;14.10;68.30
68766;DHT22;55756;45.582;11.484;2024-02-23T03:52:20;14.10;68.20
68766;DHT22;55756;45.582;11.484;2024-02-23T03:54:45;14.10;68.30
68766;DHT22;55756;45.582;11.484;2024-02-23T03:57:11;14.10;68.50
68766;DHT22;55756;45.582;11.484;2024-02-23T03:59:37;14.10;68.30
68766;DHT22;55756;45.582;11.484;2024-02-23T04:02:03;14.10;68.20
68766;DHT22;55756;45.582;11.484;2024-02-23T04:04:29;14.20;68.40
68766;DHT22;55756;45.582;11.484;2024-02-23T04:06:55;14.10;68.70
68766;DHT22;55756;45.582;11.484;2024-02-23T04:09:20;14.20;68.40
68766;DHT22;55756;45.582;11.484;2024-02-23T04:11:49;14.20;68.20
68766;DHT22;55756;45.582;11.484;2024-02-23T04:14:15;14.20;68.10
68766;DHT22;55756;45.582;11.484;2024-02-23T04:16:40;14.20;68.20
68766;DHT22;55756;45.582;11.484;2024-02-23T04:19:06;14.20;68.10
68766;DHT22;55756;45.582;11.484;2024-02-23T04:21:32;14.20;68.40
68766;DHT22;55756;45.582;11.484;2024-02-23T04:23:58;14.10;68.40
68766;DHT22;55756;45.582;11.484;2024-02-23T04:26:24;14.20;68.50
68766;DHT22;55756;45.582;11.484;2024-02-23T04:28:49;14.20;68.70
68766;DHT22;55756;45.582;11.484;2024-02-23T04:31:15;14.20;68.90
68766;DHT22;55756;45.582;11.484;2024-02-23T04:33:41;14.20;69.20
68766;DHT22;55756;45.582;11.484;2024-02-23T04:36:07;14.20;68.90
68766;DHT22;55756;45.582;11.484;2024-02-23T04:38:33;14.20;68.90
68766;DHT22;55756;45.582;11.484;2024-02-23T04:41:03;14.20;69.00
68766;DHT22;55756;45.582;11.484;2024-02-23T04:43:29;14.30;69.20
68766;DHT22;55756;45.582;11.484;2024-02-23T04:45:55;14.20;69.40
68766;DHT22;55756;45.582;11.484;2024-02-23T04:48:21;14.20;69.30
68766;DHT22;55756;45.582;11.484;2024-02-23T04:50:46;14.10;69.10
68766;DHT22;55756;45.582;11.484;2024-02-23T04:53:12;14.20;69.20
68766;DHT22;55756;45.582;11.484;2024-02-23T04:55:38;14.10;69.40
68766;DHT22;55756;45.582;11.484;2024-02-23T04:58:03;14.20;69.30
68766;DHT22;55756;45.582;11.484;2024-02-23T05:00:29;14.10;69.50
68766;DHT22;55756;45.582;11.484;2024-02-23T05:03:01;14.10;69.70
68766;DHT22;55756;45.582;11.484;2024-02-23T05:05:32;14.10;69.80
68766;DHT22;55756;45.582;11.484;2024-02-23T05:07:57;14.10;70.00
68766;DHT22;55756;45.582;11.484;2024-02-23T05:10:23;14.00;70.00
68766;DHT22;55756;45.582;11.484;2024-02-23T05:12:50;14.00;70.10
68766;DHT22;55756;45.582;11.484;2024-02-23T05:15:16;14.00;70.10
68766;DHT22;55756;45.582;11.484;2024-02-23T05:17:42;14.00;70.20
68766;DHT22;55756;45.582;11.484;2024-02-23T05:20:08;14.10;70.00
68766;DHT22;55756;45.582;11.484;2024-02-23T05:22:36;14.10;69.90
68766;DHT22;55756;45.582;11.484;2024-02-23T05:25:02;14.10;70.10
68766;DHT22;55756;45.582;11.484;2024-02-23T05:27:30;14.20;70.00
68766;DHT22;55756;45.582;11.484;2024-02-23T05:29:56;14.20;69.90
68766;DHT22;55756;45.582;11.484;2024-02-23T05:32:22;14.30;69.70
68766;DHT22;55756;45.582;11.484;2024-02-23T05:34:48;14.30;69.50
68766;DHT22;55756;45.582;11.484;2024-02-23T05:37:17;14.30;69.60
68766;DHT22;55756;45.582;11.484;2024-02-23T05:39:42;14.20;69.40
68766;DHT22;55756;45.582;11.484;2024-02-23T05:42:08;14.30;69.10
68766;DHT22;55756;45.582;11.484;2024-02-23T05:44:34;14.20;68.60
68766;DHT22;55756;45.582;11.484;2024-02-23T05:47:00;14.20;68.70
68766;DHT22;55756;45.582;11.484;2024-02-23T05:49:25;14.20;68.60
68766;DHT22;55756;45.582;11.484;2024-02-23T05:51:51;14.20;68.80
68766;DHT22;55756;45.582;11.484;2024-02-23T05:54:17;14.10;68.80
68766;DHT22;55756;45.582;11.484;2024-02-23T05:56:44;14.10;69.20
68766;DHT22;55756;45.582;11.484;2024-02-23T05:59:11;14.10;69.60
68766;DHT22;55756;45.582;11.484;2024-02-23T06:01:36;14.10;69.50
68766;DHT22;55756;45.582;11.484;2024-02-23T06:04:02;14.10;69.60
68766;DHT22;55756;45.582;11.484;2024-02-23T06:06:28;14.10;69.90
68766;DHT22;55756;45.582;11.484;2024-02-23T06:08:54;14.20;69.80
68766;DHT22;55756;45.582;11.484;2024-02-23T06:11:20;14.20;69.80
68766;DHT22;55756;45.582;11.484;2024-02-23T06:13:47;14.20;69.60
68766;DHT22;55756;45.582;11.484;2024-02-23T06:16:13;14.20;69.40
68766;DHT22;55756;45.582;11.484;2024-02-23T06:18:39;14.20;69.30
68766;DHT22;55756;45.582;11.484;2024-02-23T06:21:14;14.20;69.60
68766;DHT22;55756;45.582;11.484;2024-02-23T06:23:40;14.20;69.20
68766;DHT22;55756;45.582;11.484;2024-02-23T06:26:06;14.30;69.30
68766;DHT22;55756;45.582;11.484;2024-02-23T06:28:32;14.30;69.10
68766;DHT22;55756;45.582;11.484;2024-02-23T06:30:58;14.30;69.00
68766;DHT22;55756;45.582;11.484;2024-02-23T06:33:24;14.30;68.80
68766;DHT22;55756;45.582;11.484;2024-02-23T06:35:50;14.30;68.70
68766;DHT22;55756;45.582;11.484;2024-02-23T06:38:18;14.30;68.80
68766;DHT22;55756;45.582;11.484;2024-02-23T06:40:43;14.30;68.80
68766;DHT22;55756;45.582;11.484;2024-02-23T06:43:09;14.40;68.90
68766;DHT22;55756;45.582;11.484;2024-02-23T06:45:35;14.40;68.90
68766;DHT22;55756;45.582;11.484;2024-02-23T06:48:01;14.40;69.00
68766;DHT22;55756;45.582;11.484;2024-02-23T06:50:26;14.30;69.00
68766;DHT22;55756;45.582;11.484;2024-02-23T06:52:52;14.30;69.00
68766;DHT22;55756;45.582;11.484;2024-02-23T06:55:18;14.30;69.20
68766;DHT22;55756;45.582;11.484;2024-02-23T06:57:43;14.30;69.50
68766;DHT22;55756;45.582;11.484;2024-02-23T07:00:09;14.40;69.40
68766;DHT22;55756;45.582;11.484;2024-02-23T07:02:35;14.40;69.50
68766;DHT22;55756;45.582;11.484;2024-02-23T07:05:03;14.40;69.20
68766;DHT22;55756;45.582;11.484;2024-02-23T07:07:34;14.40;69.10
68766;DHT22;55756;45.582;11.484;2024-02-23T07:10:00;14.50;68.80
68766;DHT22;55756;45.582;11.484;2024-02-23T07:12:26;14.40;68.90
68766;DHT22;55756;45.582;11.484;2024-02-23T07:14:56;14.40;69.30
68766;DHT22;55756;45.582;11.484;2024-02-23T07:17:21;14.40;69.20
68766;DHT22;55756;45.582;11.484;2024-02-23T07:19:47;14.40;69.40
68766;DHT22;55756;45.582;11.484;2024-02-23T07:22:13;14.40;69.80
68766;DHT22;55756;45.582;11.484;2024-02-23T07:24:42;14.40;69.50
68766;DHT22;55756;45.582;11.484;2024-02-23T07:27:08;14.40;70.00
68766;DHT22;55756;45.582;11.484;2024-02-23T07:29:34;14.30;70.20
68766;DHT22;55756;45.582;11.484;2024-02-23T07:32:00;14.30;70.50
68766;DHT22;55756;45.582;11.484;2024-02-23T07:34:25;14.30;70.80
68766;DHT22;55756;45.582;11.484;2024-02-23T07:36:52;14.30;70.60
68766;DHT22;55756;45.582;11.484;2024-02-23T07:39:18;14.30;70.70
68766;DHT22;55756;45.582;11.484;2024-02-23T07:41:44;14.30;70.70
68766;DHT22;55756;45.582;11.484;2024-02-23T07:44:10;14.40;70.50
68766;DHT22;55756;45.582;11.484;2024-02-23T07:46:36;14.40;70.70
68766;DHT22;55756;45.582;11.484;2024-02-23T07:49:02;14.40;70.70
68766;DHT22;55756;45.582;11.484;2024-02-23T07:51:28;14.40;70.90
68766;DHT22;55756;45.582;11.484;2024-02-23T07:53:54;14.40;70.90
68766;DHT22;55756;45.582;11.484;2024-02-23T07:56:20;14.40;71.00
68766;DHT22;55756;45.582;11.484;2024-02-23T07:58:46;14.40;71.10
68766;DHT22;55756;45.582;11.484;2024-02-23T08:01:14;14.30;71.10
68766;DHT22;55756;45.582;11.484;2024-02-23T08:03:40;14.30;71.30
68766;DHT22;55756;45.582;11.484;2024-02-23T08:06:06;14.30;71.20
68766;DHT22;55756;45.582;11.484;2024-02-23T08:08:32;14.30;71.30
68766;DHT22;55756;45.582;11.484;2024-02-23T08:11:04;14.40;71.20
68766;DHT22;55756;45.582;11.484;2024-02-23T08:13:31;14.40;71.20
68766;DHT22;55756;45.582;11.484;2024-02-23T08:15:59;14.40;71.30
68766;DHT22;55756;45.582;11.484;2024-02-23T08:18:25;14.50;71.20
68766;DHT22;55756;45.582;11.484;2024-02-23T08:20:51;14.40;71.10
68766;DHT22;55756;45.582;11.484;2024-02-23T08:23:17;14.40;71.30
68766;DHT22;55756;45.582;11.484;2024-02-23T08:25:44;14.50;71.30
68766;DHT22;55756;45.582;11.484;2024-02-23T08:28:10;14.50;71.30
68766;DHT22;55756;45.582;11.484;2024-02-23T08:30:36;14.40;71.40
68766;DHT22;55756;45.582;11.484;2024-02-23T08:33:01;14.40;71.50
68766;DHT22;55756;45.582;11.484;2024-02-23T08:35:27;14.40;71.80
68766;DHT22;55756;45.582;11.484;2024-02-23T08:37:53;14.40;71.80
68766;DHT22;55756;45.582;11.484;2024-02-23T08:40:19;14.50;71.70
68766;DHT22;55756;45.582;11.484;2024-02-23T08:42:45;14.50;71.80
68766;DHT22;55756;45.582;11.484;2024-02-23T08:45:26;14.50;71.60
68766;DHT22;55756;45.582;11.484;2024-02-23T08:47:52;14.50;71.30
68766;DHT22;55756;45.582;11.484;2024-02-23T08:50:18;14.40;71.70
68766;DHT22;55756;45.582;11.484;2024-02-23T08:52:44;14.40;71.90
68766;DHT22;55756;45.582;11.484;2024-02-23T08:55:09;14.40;71.80
68766;DHT22;55756;45.582;11.484;2024-02-23T08:57:37;14.40;71.70
68766;DHT22;55756;45.582;11.484;2024-02-23T09:00:03;14.40;71.90
68766;DHT22;55756;45.582;11.484;2024-02-23T09:02:30;14.40;72.20
68766;DHT22;55756;45.582;11.484;2024-02-23T09:04:58;14.40;72.10
68766;DHT22;55756;45.582;11.484;2024-02-23T09:07:23;14.50;71.90
68766;DHT22;55756;45.582;11.484;2024-02-23T09:09:49;14.50;71.70
68766;DHT22;55756;45.582;11.484;2024-02-23T09:12:16;14.50;71.80
68766;DHT22;55756;45.582;11.484;2024-02-23T09:14:42;14.60;71.60
68766;DHT22;55756;45.582;11.484;2024-02-23T09:17:33;14.60;71.80
68766;DHT22;55756;45.582;11.484;2024-02-23T09:19:59;14.60;71.90
68766;DHT22;55756;45.582;11.484;2024-02-23T09:22:25;14.60;71.80
68766;DHT22;55756;45.582;11.484;2024-02-23T09:24:51;14.60;72.00
68766;DHT22;55756;45.582;11.484;2024-02-23T09:27:17;14.60;71.90
68766;DHT22;55756;45.582;11.484;2024-02-23T09:29:45;14.50;72.00
68766;DHT22;55756;45.582;11.484;2024-02-23T09:32:11;14.50;72.10
68766;DHT22;55756;45.582;11.484;2024-02-23T09:34:37;14.60;72.20
68766;DHT22;55756;45.582;11.484;2024-02-23T09:37:02;14.60;72.00
68766;DHT22;55756;45.582;11.484;2024-02-23T09:39:28;14.60;72.00
68766;DHT22;55756;45.582;11.484;2024-02-23T09:41:56;14.60;72.10
68766;DHT22;55756;45.582;11.484;2024-02-23T09:44:22;14.70;71.80
68766;DHT22;55756;45.582;11.484;2024-02-23T09:46:48;14.70;71.80
68766;DHT22;55756;45.582;11.484;2024-02-23T09:49:15;14.60;71.90
68766;DHT22;55756;45.582;11.484;2024-02-23T09:51:41;14.60;72.10
68766;DHT22;55756;45.582;11.484;2024-02-23T09:54:07;14.70;72.10
68766;DHT22;55756;45.582;11.484;2024-02-23T09:56:33;14.70;71.90
68766;DHT22;55756;45.582;11.484;2024-02-23T09:59:03;14.70;71.90
68766;DHT22;55756;45.582;11.484;2024-02-23T10:01:30;14.80;71.80
68766;DHT22;55756;45.582;11.484;2024-02-23T10:04:03;14.70;71.90
68766;DHT22;55756;45.582;11.484;2024-02-23T10:06:30;14.70;72.20
68766;DHT22;55756;45.582;11.484;2024-02-23T10:08:55;14.60;72.40
68766;DHT22;55756;45.582;11.484;2024-02-23T10:11:22;14.60;72.30
68766;DHT22;55756;45.582;11.484;2024-02-23T10:13:51;14.70;72.10
68766;DHT22;55756;45.582;11.484;2024-02-23T10:16:18;14.70;72.20
68766;DHT22;55756;45.582;11.484;2024-02-23T10:18:46;14.70;72.10
68766;DHT22;55756;45.582;11.484;2024-02-23T10:21:14;14.70;71.80
68766;DHT22;55756;45.582;11.484;2024-02-23T10:23:40;14.80;71.80
68766;DHT22;55756;45.582;11.484;2024-02-23T10:26:07;14.80;71.70
68766;DHT22;55756;45.582;11.484;2024-02-23T10:28:35;14.80;71.70
68766;DHT22;55756;45.582;11.484;2024-02-23T10:31:00;14.80;71.70
68766;DHT22;55756;45.582;11.484;2024-02-23T10:33:27;14.80;71.90
68766;DHT22;55756;45.582;11.484;2024-02-23T10:35:56;14.80;71.80
68766;DHT22;55756;45.582;11.484;2024-02-23T10:38:26;14.80;71.60
68766;DHT22;55756;45.582;11.484;2024-02-23T10:40:55;14.80;71.60
68766;DHT22;55756;45.582;11.484;2024-02-23T10:43:34;14.80;71.80
68766;DHT22;55756;45.582;11.484;2024-02-23T10:46:01;14.80;71.70
68766;DHT22;55756;45.582;11.484;2024-02-23T10:48:33;14.80;71.80
68766;DHT22;55756;45.582;11.484;2024-02-23T10:51:00;14.70;72.00
68766;DHT22;55756;45.582;11.484;2024-02-23T10:53:26;14.70;72.40
68766;DHT22;55756;45.582;11.484;2024-02-23T10:55:56;14.60;72.10
68766;DHT22;55756;45.582;11.484;2024-02-23T10:58:24;14.60;72.00
68766;DHT22;55756;45.582;11.484;2024-02-23T11:00:49;14.60;72.00
68766;DHT22;55756;45.582;11.484;2024-02-23T11:03:16;14.60;72.20
68766;DHT22;55756;45.582;11.484;2024-02-23T11:05:42;14.60;72.40
68766;DHT22;55756;45.582;11.484;2024-02-23T11:08:08;14.60;72.40
68766;DHT22;55756;45.582;11.484;2024-02-23T11:10:49;14.60;72.20
68766;DHT22;55756;45.582;11.484;2024-02-23T11:13:15;14.60;72.40
68766;DHT22;55756;45.582;11.484;2024-02-23T11:15:42;14.60;72.20
68766;DHT22;55756;45.582;11.484;2024-02-23T11:18:28;14.60;72.30
68766;DHT22;55756;45.582;11.484;2024-02-23T11:21:01;14.60;72.20
68766;DHT22;55756;45.582;11.484;2024-02-23T11:23:48;14.60;72.20
68766;DHT22;55756;45.582;11.484;2024-02-23T11:26:17;14.60;72.40
68766;DHT22;55756;45.582;11.484;2024-02-23T11:28:50;14.70;72.30
68766;DHT22;55756;45.582;11.484;2024-02-23T11:31:29;14.80;72.00
68766;DHT22;55756;45.582;11.484;2024-02-23T11:33:56;14.80;72.10
68766;DHT22;55756;45.582;11.484;2024-02-23T11:36:42;14.80;72.00
68766;DHT22;55756;45.582;11.484;2024-02-23T11:39:10;14.90;71.70
68766;DHT22;55756;45.582;11.484;2024-02-23T11:41:39;14.90;72.00
68766;DHT22;55756;45.582;11.484;2024-02-23T11:44:04;14.90;72.00
68766;DHT22;55756;45.582;11.484;2024-02-23T11:46:32;14.90;71.80
68766;DHT22;55756;45.582;11.484;2024-02-23T11:48:58;14.90;71.70
68766;DHT22;55756;45.582;11.484;2024-02-23T11:51:26;14.80;71.70
68766;DHT22;55756;45.582;11.484;2024-02-23T11:53:55;14.70;71.70
68766;DHT22;55756;45.582;11.484;2024-02-23T11:56:26;14.70;71.80
68766;DHT22;55756;45.582;11.484;2024-02-23T11:58:53;14.80;72.00
68766;DHT22;55756;45.582;11.484;2024-02-23T12:01:19;14.80;72.10
68766;DHT22;55756;45.582;11.484;2024-02-23T12:03:45;14.80;72.00
68766;DHT22;55756;45.582;11.484;2024-02-23T12:06:11;14.80;71.70
68766;DHT22;55756;45.582;11.484;2024-02-23T12:08:37;14.80;72.00
68766;DHT22;55756;45.582;11.484;2024-02-23T12:11:06;14.80;71.90
68766;DHT22;55756;45.582;11.484;2024-02-23T12:13:35;14.80;71.60
68766;DHT22;55756;45.582;11.484;2024-02-23T12:16:01;14.80;71.40
68766;DHT22;55756;45.582;11.484;2024-02-23T12:18:28;14.80;71.20
68766;DHT22;55756;45.582;11.484;2024-02-23T12:21:01;14.80;71.60
68766;DHT22;55756;45.582;11.484;2024-02-23T12:23:48;14.80;71.70
68766;DHT22;55756;45.582;11.484;2024-02-23T12:26:15;14.80;71.60
68766;DHT22;55756;45.582;11.484;2024-02-23T12:28:41;14.80;71.60
68766;DHT22;55756;45.582;11.484;2024-02-23T12:31:07;14.80;71.50
68766;DHT22;55756;45.582;11.484;2024-02-23T12:33:38;14.80;71.50
68766;DHT22;55756;45.582;11.484;2024-02-23T12:36:06;14.80;71.50
68766;DHT22;55756;45.582;11.484;2024-02-23T12:38:32;14.80;71.40
68766;DHT22;55756;45.582;11.484;2024-02-23T12:40:59;14.90;71.00
68766;DHT22;55756;45.582;11.484;2024-02-23T12:43:25;14.90;71.00
68766;DHT22;55756;45.582;11.484;2024-02-23T12:45:55;14.90;71.10
68766;DHT22;55756;45.582;11.484;2024-02-23T12:48:21;14.90;71.10
68766;DHT22;55756;45.582;11.484;2024-02-23T12:50:48;14.90;71.20
68766;DHT22;55756;45.582;11.484;2024-02-23T12:53:36;14.90;71.10
68766;DHT22;55756;45.582;11.484;2024-02-23T12:56:04;15.00;70.90
68766;DHT22;55756;45.582;11.484;2024-02-23T12:58:31;15.00;71.00
68766;DHT22;55756;45.582;11.484;2024-02-23T13:00:57;14.90;71.00
68766;DHT22;55756;45.582;11.484;2024-02-23T13:03:24;15.00;70.90
68766;DHT22;55756;45.582;11.484;2024-02-23T13:05:51;15.00;70.70
68766;DHT22;55756;45.582;11.484;2024-02-23T13:08:16;15.00;70.70
68766;DHT22;55756;45.582;11.484;2024-02-23T13:10:43;14.90;70.90
68766;DHT22;55756;45.582;11.484;2024-02-23T13:13:09;14.90;70.90
68766;DHT22;55756;45.582;11.484;2024-02-23T13:15:35;15.00;70.70
68766;DHT22;55756;45.582;11.484;2024-02-23T13:18:04;14.80;70.70
68766;DHT22;55756;45.582;11.484;2024-02-23T13:20:30;14.80;70.70
68766;DHT22;55756;45.582;11.484;2024-02-23T13:22:55;14.80;70.60
68766;DHT22;55756;45.582;11.484;2024-02-23T13:25:21;14.80;71.00
68766;DHT22;55756;45.582;11.484;2024-02-23T13:27:47;14.80;71.00
68766;DHT22;55756;45.582;11.484;2024-02-23T13:30:13;14.70;71.10
68766;DHT22;55756;45.582;11.484;2024-02-23T13:32:39;14.80;71.40
68766;DHT22;55756;45.582;11.484;2024-02-23T13:35:05;14.80;71.30
68766;DHT22;55756;45.582;11.484;2024-02-23T13:37:32;14.80;71.20
68766;DHT22;55756;45.582;11.484;2024-02-23T13:39:58;14.80;71.00
68766;DHT22;55756;45.582;11.484;2024-02-23T13:42:24;14.90;71.00
68766;DHT22;55756;45.582;11.484;2024-02-23T13:44:50;14.80;70.90
68766;DHT22;55756;45.582;11.484;2024-02-23T13:47:15;14.80;71.30
68766;DHT22;55756;45.582;11.484;2024-02-23T13:49:41;14.80;71.30
68766;DHT22;55756;45.582;11.484;2024-02-23T13:52:07;14.80;71.20
68766;DHT22;55756;45.582;11.484;2024-02-23T13:54:33;14.80;71.20
68766;DHT22;55756;45.582;11.484;2024-02-23T13:56:58;14.80;71.20
68766;DHT22;55756;45.582;11.484;2024-02-23T13:59:24;14.90;71.10
68766;DHT22;55756;45.582;11.484;2024-02-23T14:01:50;14.90;71.00
68766;DHT22;55756;45.582;11.484;2024-02-23T14:04:16;14.90;70.80
68766;DHT22;55756;45.582;11.484;2024-02-23T14:06:42;14.90;70.70
68766;DHT22;55756;45.582;11.484;2024-02-23T14:09:09;14.90;70.70
68766;DHT22;55756;45.582;11.484;2024-02-23T14:11:35;14.80;70.90
68766;DHT22;55756;45.582;11.484;2024-02-23T14:14:01;14.70;71.20
68766;DHT22;55756;45.582;11.484;2024-02-23T14:16:28;14.80;71.30
68766;DHT22;55756;45.582;11.484;2024-02-23T14:18:54;14.80;71.20
68766;DHT22;55756;45.582;11.484;2024-02-23T14:21:21;14.80;71.20
68766;DHT22;55756;45.582;11.484;2024-02-23T14:23:48;14.90;71.10
68766;DHT22;55756;45.582;11.484;2024-02-23T14:26:14;14.90;71.10
68766;DHT22;55756;45.582;11.484;2024-02-23T14:28:39;14.90;70.90
68766;DHT22;55756;45.582;11.484;2024-02-23T14:31:06;14.90;70.80
68766;DHT22;55756;45.582;11.484;2024-02-23T14:33:32;14.90;70.80
68766;DHT22;55756;45.582;11.484;2024-02-23T14:35:58;14.90;70.80
68766;DHT22;55756;45.582;11.484;2024-02-23T14:38:23;14.90;70.80
68766;DHT22;55756;45.582;11.484;2024-02-23T14:40:49;15.00;70.60
68766;DHT22;55756;45.582;11.484;2024-02-23T14:43:15;15.00;70.60
68766;DHT22;55756;45.582;11.484;2024-02-23T14:45:41;14.90;70.70
68766;DHT22;55756;45.582;11.484;2024-02-23T14:48:07;15.00;70.50
68766;DHT22;55756;45.582;11.484;2024-02-23T14:50:33;15.00;70.50
68766;DHT22;55756;45.582;11.484;2024-02-23T14:52:59;15.00;70.40
68766;DHT22;55756;45.582;11.484;2024-02-23T14:55:25;15.00;70.70
68766;DHT22;55756;45.582;11.484;2024-02-23T14:57:51;15.00;70.80
68766;DHT22;55756;45.582;11.484;2024-02-23T15:00:17;15.00;70.60
68766;DHT22;55756;45.582;11.484;2024-02-23T15:02:43;15.00;70.60
68766;DHT22;55756;45.582;11.484;2024-02-23T15:05:09;15.00;70.50
68766;DHT22;55756;45.582;11.484;2024-02-23T15:07:35;15.00;70.60
68766;DHT22;55756;45.582;11.484;2024-02-23T15:10:01;14.90;70.70
68766;DHT22;55756;45.582;11.484;2024-02-23T15:12:34;14.90;71.00